sensor_id;sensor_type;location;lat;lon;timestamp;P1;durP1;ratioP1;P2;durP2;ratioP2
59336;SDS011;45115;52.002;4.686;2023-02-24T00:00:50;11.95;;;3.53;;
59336;SDS011;45115;52.002;4.686;2023-02-24T00:03:19;7.90;;;3.97;;
59336;SDS011;45115;52.002;4.686;2023-02-24T00:05:45;10.15;;;3.47;;
59336;SDS011;45115;52.002;4.686;2023-02-24T00:08:14;9.57;;;3.55;;
59336;SDS011;45115;52.002;4.686;2023-02-24T00:10:42;13.18;;;4.15;;
59336;SDS011;45115;52.002;4.686;2023-02-24T00:13:08;11.98;;;4.38;;
59336;SDS011;45115;52.002;4.686;2023-02-24T00:15:36;12.63;;;4.05;;
59336;SDS011;45115;52.002;4.686;2023-02-24T00:18:02;7.03;;;3.65;;
59336;SDS011;45115;52.002;4.686;2023-02-24T00:20:31;11.10;;;3.92;;
59336;SDS011;45115;52.002;4.686;2023-02-24T00:22:58;12.18;;;3.80;;
59336;SDS011;45115;52.002;4.686;2023-02-24T00:25:25;12.98;;;4.07;;
59336;SDS011;45115;52.002;4.686;2023-02-24T00:27:53;7.72;;;3.85;;
59336;SDS011;45115;52.002;4.686;2023-02-24T00:30:20;11.32;;;4.25;;
59336;SDS011;45115;52.002;4.686;2023-02-24T00:32:48;10.63;;;4.60;;
59336;SDS011;45115;52.002;4.686;2023-02-24T00:35:15;10.80;;;4.57;;
59336;SDS011;45115;52.002;4.686;2023-02-24T00:37:41;11.57;;;4.93;;
59336;SDS011;45115;52.002;4.686;2023-02-24T00:40:08;14.15;;;5.40;;
59336;SDS011;45115;52.002;4.686;2023-02-24T00:42:36;8.18;;;4.07;;
59336;SDS011;45115;52.002;4.686;2023-02-24T00:45:06;13.07;;;4.70;;
59336;SDS011;45115;52.002;4.686;2023-02-24T00:47:36;10.20;;;4.75;;
59336;SDS011;45115;52.002;4.686;2023-02-24T00:50:03;18.98;;;7.30;;
59336;SDS011;45115;52.002;4.686;2023-02-24T00:52:30;10.63;;;4.07;;
59336;SDS011;45115;52.002;4.686;2023-02-24T00:54:57;13.30;;;4.75;;
59336;SDS011;45115;52.002;4.686;2023-02-24T00:57:27;12.05;;;4.78;;
59336;SDS011;45115;52.002;4.686;2023-02-24T00:59:54;13.48;;;5.45;;
59336;SDS011;45115;52.002;4.686;2023-02-24T01:02:24;9.45;;;4.28;;
59336;SDS011;45115;52.002;4.686;2023-02-24T01:04:51;11.32;;;4.60;;
59336;SDS011;45115;52.002;4.686;2023-02-24T01:07:18;10.77;;;4.45;;
59336;SDS011;45115;52.002;4.686;2023-02-24T01:09:44;11.02;;;4.60;;
59336;SDS011;45115;52.002;4.686;2023-02-24T01:12:11;10.85;;;4.57;;
59336;SDS011;45115;52.002;4.686;2023-02-24T01:14:58;11.50;;;4.60;;
59336;SDS011;45115;52.002;4.686;2023-02-24T01:17:28;13.45;;;4.72;;
59336;SDS011;45115;52.002;4.686;2023-02-24T01:19:55;16.45;;;5.53;;
59336;SDS011;45115;52.002;4.686;2023-02-24T01:22:24;10.35;;;4.28;;
59336;SDS011;45115;52.002;4.686;2023-02-24T01:24:51;7.35;;;3.55;;
59336;SDS011;45115;52.002;4.686;2023-02-24T01:27:18;11.32;;;4.32;;
59336;SDS011;45115;52.002;4.686;2023-02-24T01:29:44;7.03;;;3.97;;
59336;SDS011;45115;52.002;4.686;2023-02-24T01:32:12;11.07;;;4.53;;
59336;SDS011;45115;52.002;4.686;2023-02-24T01:34:42;8.75;;;4.13;;
59336;SDS011;45115;52.002;4.686;2023-02-24T01:37:08;6.45;;;3.72;;
59336;SDS011;45115;52.002;4.686;2023-02-24T01:39:35;9.93;;;4.00;;
59336;SDS011;45115;52.002;4.686;2023-02-24T01:42:02;11.00;;;3.67;;
59336;SDS011;45115;52.002;4.686;2023-02-24T01:47:17;14.02;;;3.80;;
59336;SDS011;45115;52.002;4.686;2023-02-24T01:49:46;11.32;;;3.63;;
59336;SDS011;45115;52.002;4.686;2023-02-24T01:52:15;8.75;;;3.50;;
59336;SDS011;45115;52.002;4.686;2023-02-24T01:54:44;10.23;;;3.78;;
59336;SDS011;45115;52.002;4.686;2023-02-24T01:57:12;5.53;;;3.10;;
59336;SDS011;45115;52.002;4.686;2023-02-24T01:59:41;12.40;;;3.80;;
59336;SDS011;45115;52.002;4.686;2023-02-24T02:02:09;8.27;;;3.75;;
59336;SDS011;45115;52.002;4.686;2023-02-24T02:04:37;11.88;;;3.95;;
59336;SDS011;45115;52.002;4.686;2023-02-24T02:07:06;10.85;;;3.05;;
59336;SDS011;45115;52.002;4.686;2023-02-24T02:09:34;12.80;;;4.32;;
59336;SDS011;45115;52.002;4.686;2023-02-24T02:12:01;8.60;;;3.28;;
59336;SDS011;45115;52.002;4.686;2023-02-24T02:14:27;9.32;;;3.55;;
59336;SDS011;45115;52.002;4.686;2023-02-24T02:16:58;8.80;;;3.80;;
59336;SDS011;45115;52.002;4.686;2023-02-24T02:19:40;8.43;;;3.50;;
59336;SDS011;45115;52.002;4.686;2023-02-24T02:22:25;7.35;;;3.80;;
59336;SDS011;45115;52.002;4.686;2023-02-24T02:24:59;10.80;;;4.15;;
59336;SDS011;45115;52.002;4.686;2023-02-24T02:27:34;9.30;;;3.50;;
59336;SDS011;45115;52.002;4.686;2023-02-24T02:30:30;10.07;;;3.67;;
59336;SDS011;45115;52.002;4.686;2023-02-24T02:35:50;9.88;;;3.90;;
59336;SDS011;45115;52.002;4.686;2023-02-24T02:38:25;8.00;;;3.20;;
59336;SDS011;45115;52.002;4.686;2023-02-24T02:40:57;9.57;;;3.15;;
59336;SDS011;45115;52.002;4.686;2023-02-24T02:43:27;6.90;;;2.92;;
59336;SDS011;45115;52.002;4.686;2023-02-24T02:45:56;6.88;;;3.40;;
59336;SDS011;45115;52.002;4.686;2023-02-24T02:48:24;9.77;;;3.08;;
59336;SDS011;45115;52.002;4.686;2023-02-24T02:50:56;8.15;;;3.30;;
59336;SDS011;45115;52.002;4.686;2023-02-24T02:53:29;9.88;;;3.55;;
59336;SDS011;45115;52.002;4.686;2023-02-24T02:55:59;6.93;;;3.25;;
59336;SDS011;45115;52.002;4.686;2023-02-24T02:58:29;6.97;;;2.60;;
59336;SDS011;45115;52.002;4.686;2023-02-24T03:00:59;6.18;;;2.88;;
59336;SDS011;45115;52.002;4.686;2023-02-24T03:03:27;7.50;;;3.20;;
59336;SDS011;45115;52.002;4.686;2023-02-24T03:05:57;7.75;;;2.80;;
59336;SDS011;45115;52.002;4.686;2023-02-24T03:08:27;10.52;;;3.38;;
59336;SDS011;45115;52.002;4.686;2023-02-24T03:10:55;5.57;;;2.75;;
59336;SDS011;45115;52.002;4.686;2023-02-24T03:13:24;6.40;;;2.80;;
59336;SDS011;45115;52.002;4.686;2023-02-24T03:15:55;6.25;;;2.58;;
59336;SDS011;45115;52.002;4.686;2023-02-24T03:18:24;9.25;;;2.88;;
59336;SDS011;45115;52.002;4.686;2023-02-24T03:20:56;6.85;;;2.60;;
59336;SDS011;45115;52.002;4.686;2023-02-24T03:23:25;7.57;;;2.90;;
59336;SDS011;45115;52.002;4.686;2023-02-24T03:25:57;6.22;;;2.22;;
59336;SDS011;45115;52.002;4.686;2023-02-24T03:28:29;7.53;;;2.63;;
59336;SDS011;45115;52.002;4.686;2023-02-24T03:31:03;6.35;;;2.42;;
59336;SDS011;45115;52.002;4.686;2023-02-24T03:33:33;9.63;;;2.75;;
59336;SDS011;45115;52.002;4.686;2023-02-24T03:36:03;8.70;;;2.50;;
59336;SDS011;45115;52.002;4.686;2023-02-24T03:38:31;8.20;;;2.10;;
59336;SDS011;45115;52.002;4.686;2023-02-24T03:40:58;5.57;;;2.30;;
59336;SDS011;45115;52.002;4.686;2023-02-24T03:43:29;6.60;;;2.65;;
59336;SDS011;45115;52.002;4.686;2023-02-24T03:45:57;6.68;;;2.17;;
59336;SDS011;45115;52.002;4.686;2023-02-24T03:48:24;5.45;;;2.13;;
59336;SDS011;45115;52.002;4.686;2023-02-24T03:50:52;7.15;;;2.40;;
59336;SDS011;45115;52.002;4.686;2023-02-24T03:53:40;5.13;;;2.03;;
59336;SDS011;45115;52.002;4.686;2023-02-24T03:56:17;7.90;;;2.55;;
59336;SDS011;45115;52.002;4.686;2023-02-24T03:58:51;5.45;;;2.30;;
59336;SDS011;45115;52.002;4.686;2023-02-24T04:01:23;4.53;;;1.70;;
59336;SDS011;45115;52.002;4.686;2023-02-24T04:03:53;7.25;;;2.10;;
59336;SDS011;45115;52.002;4.686;2023-02-24T04:09:02;5.40;;;1.58;;
59336;SDS011;45115;52.002;4.686;2023-02-24T04:14:08;3.78;;;1.63;;
59336;SDS011;45115;52.002;4.686;2023-02-24T04:16:47;7.57;;;2.00;;
59336;SDS011;45115;52.002;4.686;2023-02-24T04:19:17;6.30;;;2.10;;
59336;SDS011;45115;52.002;4.686;2023-02-24T04:21:47;6.85;;;1.65;;
59336;SDS011;45115;52.002;4.686;2023-02-24T04:24:21;4.57;;;1.70;;
59336;SDS011;45115;52.002;4.686;2023-02-24T04:26:48;5.90;;;1.65;;
59336;SDS011;45115;52.002;4.686;2023-02-24T04:29:18;5.30;;;1.80;;
59336;SDS011;45115;52.002;4.686;2023-02-24T04:31:49;4.50;;;1.40;;
59336;SDS011;45115;52.002;4.686;2023-02-24T04:34:17;7.90;;;1.85;;
59336;SDS011;45115;52.002;4.686;2023-02-24T04:36:44;5.57;;;1.45;;
59336;SDS011;45115;52.002;4.686;2023-02-24T04:39:14;8.23;;;1.88;;
59336;SDS011;45115;52.002;4.686;2023-02-24T04:41:45;7.10;;;1.75;;
59336;SDS011;45115;52.002;4.686;2023-02-24T04:44:13;5.47;;;1.90;;
59336;SDS011;45115;52.002;4.686;2023-02-24T04:46:41;4.13;;;1.63;;
59336;SDS011;45115;52.002;4.686;2023-02-24T04:49:08;4.55;;;1.50;;
59336;SDS011;45115;52.002;4.686;2023-02-24T04:51:35;3.80;;;1.35;;
59336;SDS011;45115;52.002;4.686;2023-02-24T04:54:02;4.57;;;1.60;;
59336;SDS011;45115;52.002;4.686;2023-02-24T04:56:28;8.25;;;1.70;;
59336;SDS011;45115;52.002;4.686;2023-02-24T04:58:56;8.15;;;1.98;;
59336;SDS011;45115;52.002;4.686;2023-02-24T05:01:23;5.03;;;2.28;;
59336;SDS011;45115;52.002;4.686;2023-02-24T05:03:49;3.72;;;1.67;;
59336;SDS011;45115;52.002;4.686;2023-02-24T05:06:16;3.92;;;1.35;;
59336;SDS011;45115;52.002;4.686;2023-02-24T05:08:42;3.60;;;1.40;;
59336;SDS011;45115;52.002;4.686;2023-02-24T05:11:11;2.70;;;1.58;;
59336;SDS011;45115;52.002;4.686;2023-02-24T05:13:40;6.88;;;2.05;;
59336;SDS011;45115;52.002;4.686;2023-02-24T05:16:11;4.03;;;1.95;;
59336;SDS011;45115;52.002;4.686;2023-02-24T05:18:39;2.25;;;1.40;;
59336;SDS011;45115;52.002;4.686;2023-02-24T05:21:07;6.45;;;1.50;;
59336;SDS011;45115;52.002;4.686;2023-02-24T05:23:52;5.50;;;1.83;;
59336;SDS011;45115;52.002;4.686;2023-02-24T05:26:19;4.55;;;1.40;;
59336;SDS011;45115;52.002;4.686;2023-02-24T05:28:48;7.57;;;2.03;;
59336;SDS011;45115;52.002;4.686;2023-02-24T05:31:18;6.00;;;1.73;;
59336;SDS011;45115;52.002;4.686;2023-02-24T05:33:46;3.70;;;1.60;;
59336;SDS011;45115;52.002;4.686;2023-02-24T05:36:14;6.10;;;1.98;;
59336;SDS011;45115;52.002;4.686;2023-02-24T05:38:41;2.78;;;1.58;;
59336;SDS011;45115;52.002;4.686;2023-02-24T05:41:09;6.00;;;1.75;;
59336;SDS011;45115;52.002;4.686;2023-02-24T05:43:41;6.65;;;1.88;;
59336;SDS011;45115;52.002;4.686;2023-02-24T05:46:08;7.68;;;2.00;;
59336;SDS011;45115;52.002;4.686;2023-02-24T05:48:38;6.43;;;1.75;;
59336;SDS011;45115;52.002;4.686;2023-02-24T05:51:05;4.30;;;1.38;;
59336;SDS011;45115;52.002;4.686;2023-02-24T05:53:36;5.20;;;1.83;;
59336;SDS011;45115;52.002;4.686;2023-02-24T05:56:05;5.57;;;2.33;;
59336;SDS011;45115;52.002;4.686;2023-02-24T05:58:32;5.05;;;1.85;;
59336;SDS011;45115;52.002;4.686;2023-02-24T06:00:58;4.60;;;2.03;;
59336;SDS011;45115;52.002;4.686;2023-02-24T06:03:36;7.20;;;2.03;;
59336;SDS011;45115;52.002;4.686;2023-02-24T06:06:07;7.00;;;2.10;;
59336;SDS011;45115;52.002;4.686;2023-02-24T06:08:36;7.53;;;2.42;;
59336;SDS011;45115;52.002;4.686;2023-02-24T06:11:08;5.97;;;1.75;;
59336;SDS011;45115;52.002;4.686;2023-02-24T06:13:35;6.22;;;1.90;;
59336;SDS011;45115;52.002;4.686;2023-02-24T06:16:02;4.30;;;2.25;;
59336;SDS011;45115;52.002;4.686;2023-02-24T06:18:31;8.15;;;2.53;;
59336;SDS011;45115;52.002;4.686;2023-02-24T06:21:00;6.88;;;2.00;;
59336;SDS011;45115;52.002;4.686;2023-02-24T06:23:28;6.43;;;2.38;;
59336;SDS011;45115;52.002;4.686;2023-02-24T06:25:55;7.15;;;2.22;;
59336;SDS011;45115;52.002;4.686;2023-02-24T06:30:52;5.47;;;1.90;;
59336;SDS011;45115;52.002;4.686;2023-02-24T06:33:20;6.57;;;2.20;;
59336;SDS011;45115;52.002;4.686;2023-02-24T06:35:47;9.30;;;2.92;;
59336;SDS011;45115;52.002;4.686;2023-02-24T06:38:14;7.18;;;2.63;;
59336;SDS011;45115;52.002;4.686;2023-02-24T06:40:42;6.05;;;2.08;;
59336;SDS011;45115;52.002;4.686;2023-02-24T06:43:08;5.82;;;2.60;;
59336;SDS011;45115;52.002;4.686;2023-02-24T06:45:35;5.40;;;2.33;;
59336;SDS011;45115;52.002;4.686;2023-02-24T06:48:02;6.75;;;2.45;;
59336;SDS011;45115;52.002;4.686;2023-02-24T06:50:28;6.10;;;3.00;;
59336;SDS011;45115;52.002;4.686;2023-02-24T06:52:55;8.30;;;2.70;;
59336;SDS011;45115;52.002;4.686;2023-02-24T06:55:24;7.72;;;2.45;;
59336;SDS011;45115;52.002;4.686;2023-02-24T06:57:55;5.47;;;1.90;;
59336;SDS011;45115;52.002;4.686;2023-02-24T07:00:23;5.97;;;2.67;;
59336;SDS011;45115;52.002;4.686;2023-02-24T07:03:02;8.15;;;2.75;;
59336;SDS011;45115;52.002;4.686;2023-02-24T07:05:39;8.13;;;2.67;;
59336;SDS011;45115;52.002;4.686;2023-02-24T07:08:09;8.25;;;2.67;;
59336;SDS011;45115;52.002;4.686;2023-02-24T07:10:50;13.68;;;3.05;;
59336;SDS011;45115;52.002;4.686;2023-02-24T07:13:18;9.15;;;3.05;;
59336;SDS011;45115;52.002;4.686;2023-02-24T07:15:44;9.43;;;2.90;;
59336;SDS011;45115;52.002;4.686;2023-02-24T07:18:13;9.40;;;2.45;;
59336;SDS011;45115;52.002;4.686;2023-02-24T07:20:40;9.98;;;3.47;;
59336;SDS011;45115;52.002;4.686;2023-02-24T07:23:10;9.02;;;2.83;;
59336;SDS011;45115;52.002;4.686;2023-02-24T07:25:37;8.65;;;2.85;;
59336;SDS011;45115;52.002;4.686;2023-02-24T07:28:05;10.48;;;2.60;;
59336;SDS011;45115;52.002;4.686;2023-02-24T07:30:33;18.65;;;3.17;;
59336;SDS011;45115;52.002;4.686;2023-02-24T07:33:01;3.80;;;2.22;;
59336;SDS011;45115;52.002;4.686;2023-02-24T07:35:28;7.15;;;2.83;;
59336;SDS011;45115;52.002;4.686;2023-02-24T07:37:55;7.00;;;2.63;;
59336;SDS011;45115;52.002;4.686;2023-02-24T07:42:52;8.00;;;2.80;;
59336;SDS011;45115;52.002;4.686;2023-02-24T07:45:19;11.02;;;3.28;;
59336;SDS011;45115;52.002;4.686;2023-02-24T07:47:47;7.47;;;3.08;;
59336;SDS011;45115;52.002;4.686;2023-02-24T07:50:13;7.88;;;2.97;;
59336;SDS011;45115;52.002;4.686;2023-02-24T07:52:42;11.15;;;2.80;;
59336;SDS011;45115;52.002;4.686;2023-02-24T07:55:09;7.03;;;2.70;;
59336;SDS011;45115;52.002;4.686;2023-02-24T07:57:36;7.22;;;3.20;;
59336;SDS011;45115;52.002;4.686;2023-02-24T08:00:03;8.30;;;3.10;;
59336;SDS011;45115;52.002;4.686;2023-02-24T08:02:42;7.25;;;2.67;;
59336;SDS011;45115;52.002;4.686;2023-02-24T08:05:10;8.70;;;3.03;;
59336;SDS011;45115;52.002;4.686;2023-02-24T08:07:36;10.00;;;2.88;;
59336;SDS011;45115;52.002;4.686;2023-02-24T08:10:05;3.42;;;1.95;;
59336;SDS011;45115;52.002;4.686;2023-02-24T08:12:49;6.30;;;2.53;;
59336;SDS011;45115;52.002;4.686;2023-02-24T08:15:18;9.45;;;2.90;;
59336;SDS011;45115;52.002;4.686;2023-02-24T08:17:48;11.10;;;3.22;;
59336;SDS011;45115;52.002;4.686;2023-02-24T08:20:18;9.88;;;3.03;;
59336;SDS011;45115;52.002;4.686;2023-02-24T08:22:49;9.40;;;3.08;;
59336;SDS011;45115;52.002;4.686;2023-02-24T08:25:17;8.88;;;3.13;;
59336;SDS011;45115;52.002;4.686;2023-02-24T08:27:44;12.38;;;2.90;;
59336;SDS011;45115;52.002;4.686;2023-02-24T08:30:11;9.63;;;2.47;;
59336;SDS011;45115;52.002;4.686;2023-02-24T08:32:47;9.30;;;2.58;;
59336;SDS011;45115;52.002;4.686;2023-02-24T08:35:23;9.57;;;2.70;;
59336;SDS011;45115;52.002;4.686;2023-02-24T08:37:51;9.60;;;2.92;;
59336;SDS011;45115;52.002;4.686;2023-02-24T08:40:19;8.73;;;3.15;;
59336;SDS011;45115;52.002;4.686;2023-02-24T08:43:03;9.60;;;3.25;;
59336;SDS011;45115;52.002;4.686;2023-02-24T08:45:40;13.45;;;4.30;;
59336;SDS011;45115;52.002;4.686;2023-02-24T08:48:08;8.73;;;2.90;;
59336;SDS011;45115;52.002;4.686;2023-02-24T08:50:44;9.95;;;3.33;;
59336;SDS011;45115;52.002;4.686;2023-02-24T08:53:10;6.47;;;2.53;;
59336;SDS011;45115;52.002;4.686;2023-02-24T08:55:43;15.52;;;3.22;;
59336;SDS011;45115;52.002;4.686;2023-02-24T08:58:09;10.48;;;2.95;;
59336;SDS011;45115;52.002;4.686;2023-02-24T09:00:42;9.57;;;2.85;;
59336;SDS011;45115;52.002;4.686;2023-02-24T09:03:14;8.60;;;3.22;;
59336;SDS011;45115;52.002;4.686;2023-02-24T09:05:57;7.65;;;3.03;;
59336;SDS011;45115;52.002;4.686;2023-02-24T09:08:23;7.70;;;2.70;;
59336;SDS011;45115;52.002;4.686;2023-02-24T09:10:57;10.00;;;2.72;;
59336;SDS011;45115;52.002;4.686;2023-02-24T09:13:24;12.38;;;3.40;;
59336;SDS011;45115;52.002;4.686;2023-02-24T09:15:57;12.07;;;2.88;;
59336;SDS011;45115;52.002;4.686;2023-02-24T09:18:23;9.23;;;3.20;;
59336;SDS011;45115;52.002;4.686;2023-02-24T09:20:54;7.93;;;2.70;;
59336;SDS011;45115;52.002;4.686;2023-02-24T09:23:21;13.18;;;3.20;;
59336;SDS011;45115;52.002;4.686;2023-02-24T09:25:54;12.52;;;3.13;;
59336;SDS011;45115;52.002;4.686;2023-02-24T09:28:21;12.27;;;3.13;;
59336;SDS011;45115;52.002;4.686;2023-02-24T09:30:49;10.77;;;2.85;;
59336;SDS011;45115;52.002;4.686;2023-02-24T09:33:18;11.70;;;3.65;;
59336;SDS011;45115;52.002;4.686;2023-02-24T09:35:56;10.38;;;3.67;;
59336;SDS011;45115;52.002;4.686;2023-02-24T09:38:35;7.82;;;2.72;;
59336;SDS011;45115;52.002;4.686;2023-02-24T09:41:32;7.38;;;3.13;;
59336;SDS011;45115;52.002;4.686;2023-02-24T09:44:21;10.73;;;3.03;;
59336;SDS011;45115;52.002;4.686;2023-02-24T09:46:50;13.73;;;4.82;;
59336;SDS011;45115;52.002;4.686;2023-02-24T09:49:19;7.43;;;2.70;;
59336;SDS011;45115;52.002;4.686;2023-02-24T09:51:48;10.25;;;3.00;;
59336;SDS011;45115;52.002;4.686;2023-02-24T09:54:26;11.40;;;3.17;;
59336;SDS011;45115;52.002;4.686;2023-02-24T09:56:57;13.18;;;3.28;;
59336;SDS011;45115;52.002;4.686;2023-02-24T09:59:34;9.73;;;3.40;;
59336;SDS011;45115;52.002;4.686;2023-02-24T10:02:03;15.30;;;3.47;;
59336;SDS011;45115;52.002;4.686;2023-02-24T10:04:42;16.23;;;3.75;;
59336;SDS011;45115;52.002;4.686;2023-02-24T10:07:19;11.55;;;3.47;;
59336;SDS011;45115;52.002;4.686;2023-02-24T10:09:51;12.00;;;3.70;;
59336;SDS011;45115;52.002;4.686;2023-02-24T10:12:19;14.40;;;4.07;;
59336;SDS011;45115;52.002;4.686;2023-02-24T10:14:48;11.45;;;3.92;;
59336;SDS011;45115;52.002;4.686;2023-02-24T10:17:18;14.98;;;4.35;;
59336;SDS011;45115;52.002;4.686;2023-02-24T10:19:48;13.32;;;5.88;;
59336;SDS011;45115;52.002;4.686;2023-02-24T10:22:22;9.20;;;4.32;;
59336;SDS011;45115;52.002;4.686;2023-02-24T10:24:56;14.10;;;5.30;;
59336;SDS011;45115;52.002;4.686;2023-02-24T10:27:36;11.52;;;4.63;;
59336;SDS011;45115;52.002;4.686;2023-02-24T10:30:06;16.33;;;5.68;;
59336;SDS011;45115;52.002;4.686;2023-02-24T10:32:45;15.27;;;5.72;;
59336;SDS011;45115;52.002;4.686;2023-02-24T10:35:14;12.70;;;5.35;;
59336;SDS011;45115;52.002;4.686;2023-02-24T10:37:41;16.95;;;6.28;;
59336;SDS011;45115;52.002;4.686;2023-02-24T10:40:10;15.93;;;6.93;;
59336;SDS011;45115;52.002;4.686;2023-02-24T10:42:41;12.73;;;5.93;;
59336;SDS011;45115;52.002;4.686;2023-02-24T10:45:13;16.02;;;7.30;;
59336;SDS011;45115;52.002;4.686;2023-02-24T10:47:41;15.15;;;7.47;;
59336;SDS011;45115;52.002;4.686;2023-02-24T10:50:18;18.10;;;7.60;;
59336;SDS011;45115;52.002;4.686;2023-02-24T10:52:46;15.45;;;7.53;;
59336;SDS011;45115;52.002;4.686;2023-02-24T10:55:38;15.90;;;7.50;;
59336;SDS011;45115;52.002;4.686;2023-02-24T10:58:21;16.67;;;7.68;;
59336;SDS011;45115;52.002;4.686;2023-02-24T11:01:05;17.00;;;8.15;;
59336;SDS011;45115;52.002;4.686;2023-02-24T11:03:45;16.83;;;8.77;;
59336;SDS011;45115;52.002;4.686;2023-02-24T11:06:25;17.90;;;8.77;;
59336;SDS011;45115;52.002;4.686;2023-02-24T11:09:16;19.27;;;9.18;;
59336;SDS011;45115;52.002;4.686;2023-02-24T11:14:47;15.55;;;7.55;;
59336;SDS011;45115;52.002;4.686;2023-02-24T11:17:33;15.27;;;7.63;;
59336;SDS011;45115;52.002;4.686;2023-02-24T11:20:02;17.88;;;7.80;;
59336;SDS011;45115;52.002;4.686;2023-02-24T11:22:36;16.60;;;7.68;;
59336;SDS011;45115;52.002;4.686;2023-02-24T11:25:04;17.33;;;8.13;;
59336;SDS011;45115;52.002;4.686;2023-02-24T11:27:32;18.35;;;8.85;;
59336;SDS011;45115;52.002;4.686;2023-02-24T11:30:05;18.75;;;8.60;;
59336;SDS011;45115;52.002;4.686;2023-02-24T11:32:36;15.68;;;7.53;;
59336;SDS011;45115;52.002;4.686;2023-02-24T11:35:06;19.20;;;8.88;;
59336;SDS011;45115;52.002;4.686;2023-02-24T11:37:37;16.65;;;8.10;;
59336;SDS011;45115;52.002;4.686;2023-02-24T11:40:05;16.45;;;7.95;;
59336;SDS011;45115;52.002;4.686;2023-02-24T11:42:37;18.10;;;8.02;;
59336;SDS011;45115;52.002;4.686;2023-02-24T11:45:10;17.30;;;8.88;;
59336;SDS011;45115;52.002;4.686;2023-02-24T11:47:39;15.70;;;7.13;;
59336;SDS011;45115;52.002;4.686;2023-02-24T11:50:15;18.67;;;7.70;;
59336;SDS011;45115;52.002;4.686;2023-02-24T11:52:45;16.38;;;7.00;;
59336;SDS011;45115;52.002;4.686;2023-02-24T11:55:13;15.30;;;7.30;;
59336;SDS011;45115;52.002;4.686;2023-02-24T11:57:44;13.70;;;5.53;;
59336;SDS011;45115;52.002;4.686;2023-02-24T12:00:15;10.90;;;4.90;;
59336;SDS011;45115;52.002;4.686;2023-02-24T12:02:45;12.70;;;4.93;;
59336;SDS011;45115;52.002;4.686;2023-02-24T12:05:12;12.73;;;4.82;;
59336;SDS011;45115;52.002;4.686;2023-02-24T12:07:41;13.35;;;5.35;;
59336;SDS011;45115;52.002;4.686;2023-02-24T12:10:12;12.98;;;5.70;;
59336;SDS011;45115;52.002;4.686;2023-02-24T12:12:40;14.75;;;5.10;;
59336;SDS011;45115;52.002;4.686;2023-02-24T12:15:10;15.20;;;5.65;;
59336;SDS011;45115;52.002;4.686;2023-02-24T12:17:40;14.88;;;5.40;;
59336;SDS011;45115;52.002;4.686;2023-02-24T12:20:14;13.38;;;5.40;;
59336;SDS011;45115;52.002;4.686;2023-02-24T12:22:46;20.27;;;5.53;;
59336;SDS011;45115;52.002;4.686;2023-02-24T12:25:17;24.63;;;6.15;;
59336;SDS011;45115;52.002;4.686;2023-02-24T12:27:50;21.13;;;7.53;;
59336;SDS011;45115;52.002;4.686;2023-02-24T12:30:25;14.23;;;4.88;;
59336;SDS011;45115;52.002;4.686;2023-02-24T12:33:06;14.57;;;4.97;;
59336;SDS011;45115;52.002;4.686;2023-02-24T12:35:40;18.25;;;6.40;;
59336;SDS011;45115;52.002;4.686;2023-02-24T12:38:15;18.35;;;4.63;;
59336;SDS011;45115;52.002;4.686;2023-02-24T12:40:44;18.70;;;5.93;;
59336;SDS011;45115;52.002;4.686;2023-02-24T12:43:15;14.20;;;3.90;;
59336;SDS011;45115;52.002;4.686;2023-02-24T12:45:47;16.80;;;3.83;;
59336;SDS011;45115;52.002;4.686;2023-02-24T12:48:23;25.45;;;4.45;;
59336;SDS011;45115;52.002;4.686;2023-02-24T12:50:55;22.65;;;4.30;;
59336;SDS011;45115;52.002;4.686;2023-02-24T12:55:55;10.07;;;3.70;;
59336;SDS011;45115;52.002;4.686;2023-02-24T12:58:25;18.55;;;4.25;;
59336;SDS011;45115;52.002;4.686;2023-02-24T13:00:57;12.65;;;3.60;;
59336;SDS011;45115;52.002;4.686;2023-02-24T13:03:34;20.27;;;3.75;;
59336;SDS011;45115;52.002;4.686;2023-02-24T13:06:05;20.08;;;5.00;;
59336;SDS011;45115;52.002;4.686;2023-02-24T13:08:36;16.75;;;3.55;;
59336;SDS011;45115;52.002;4.686;2023-02-24T13:11:06;14.57;;;3.65;;
59336;SDS011;45115;52.002;4.686;2023-02-24T13:13:39;13.00;;;3.17;;
59336;SDS011;45115;52.002;4.686;2023-02-24T13:16:09;17.30;;;4.13;;
59336;SDS011;45115;52.002;4.686;2023-02-24T13:18:37;11.77;;;3.55;;
59336;SDS011;45115;52.002;4.686;2023-02-24T13:21:08;21.35;;;4.20;;
59336;SDS011;45115;52.002;4.686;2023-02-24T13:23:52;21.10;;;3.80;;
59336;SDS011;45115;52.002;4.686;2023-02-24T13:26:21;16.58;;;3.28;;
59336;SDS011;45115;52.002;4.686;2023-02-24T13:28:55;16.52;;;3.72;;
59336;SDS011;45115;52.002;4.686;2023-02-24T13:31:23;14.23;;;3.80;;
59336;SDS011;45115;52.002;4.686;2023-02-24T13:33:57;16.92;;;3.92;;
59336;SDS011;45115;52.002;4.686;2023-02-24T13:36:24;19.77;;;4.82;;
59336;SDS011;45115;52.002;4.686;2023-02-24T13:38:51;19.10;;;4.68;;
59336;SDS011;45115;52.002;4.686;2023-02-24T13:41:35;18.33;;;4.97;;
59336;SDS011;45115;52.002;4.686;2023-02-24T13:44:03;17.95;;;3.85;;
59336;SDS011;45115;52.002;4.686;2023-02-24T13:46:31;20.52;;;3.38;;
59336;SDS011;45115;52.002;4.686;2023-02-24T13:49:02;15.85;;;3.75;;
59336;SDS011;45115;52.002;4.686;2023-02-24T13:51:37;18.33;;;3.72;;
59336;SDS011;45115;52.002;4.686;2023-02-24T13:54:12;15.63;;;4.32;;
59336;SDS011;45115;52.002;4.686;2023-02-24T13:56:42;16.35;;;3.83;;
59336;SDS011;45115;52.002;4.686;2023-02-24T13:59:18;11.07;;;3.15;;
59336;SDS011;45115;52.002;4.686;2023-02-24T14:01:49;13.93;;;3.47;;
59336;SDS011;45115;52.002;4.686;2023-02-24T14:04:20;12.50;;;2.67;;
59336;SDS011;45115;52.002;4.686;2023-02-24T14:06:48;19.00;;;4.28;;
59336;SDS011;45115;52.002;4.686;2023-02-24T14:09:16;18.92;;;4.05;;
59336;SDS011;45115;52.002;4.686;2023-02-24T14:11:48;12.20;;;2.88;;
59336;SDS011;45115;52.002;4.686;2023-02-24T14:14:15;11.02;;;3.30;;
59336;SDS011;45115;52.002;4.686;2023-02-24T14:16:43;17.05;;;4.28;;
59336;SDS011;45115;52.002;4.686;2023-02-24T14:19:13;16.67;;;3.22;;
59336;SDS011;45115;52.002;4.686;2023-02-24T14:21:47;18.85;;;3.03;;
59336;SDS011;45115;52.002;4.686;2023-02-24T14:24:13;18.17;;;3.75;;
59336;SDS011;45115;52.002;4.686;2023-02-24T14:26:41;12.68;;;3.30;;
59336;SDS011;45115;52.002;4.686;2023-02-24T14:29:08;15.82;;;3.33;;
59336;SDS011;45115;52.002;4.686;2023-02-24T14:31:35;11.27;;;2.90;;
59336;SDS011;45115;52.002;4.686;2023-02-24T14:34:03;10.27;;;4.60;;
59336;SDS011;45115;52.002;4.686;2023-02-24T14:36:30;14.20;;;3.05;;
59336;SDS011;45115;52.002;4.686;2023-02-24T14:39:00;14.07;;;2.28;;
59336;SDS011;45115;52.002;4.686;2023-02-24T14:41:27;7.18;;;1.95;;
59336;SDS011;45115;52.002;4.686;2023-02-24T14:43:54;9.32;;;2.92;;
59336;SDS011;45115;52.002;4.686;2023-02-24T14:46:20;9.45;;;1.98;;
59336;SDS011;45115;52.002;4.686;2023-02-24T14:48:51;10.98;;;3.15;;
59336;SDS011;45115;52.002;4.686;2023-02-24T14:51:18;11.57;;;3.10;;
59336;SDS011;45115;52.002;4.686;2023-02-24T14:53:49;8.45;;;2.50;;
59336;SDS011;45115;52.002;4.686;2023-02-24T14:56:18;10.98;;;2.40;;
59336;SDS011;45115;52.002;4.686;2023-02-24T14:58:45;5.93;;;1.85;;
59336;SDS011;45115;52.002;4.686;2023-02-24T15:01:14;9.25;;;2.05;;
59336;SDS011;45115;52.002;4.686;2023-02-24T15:03:44;7.50;;;1.98;;
59336;SDS011;45115;52.002;4.686;2023-02-24T15:06:12;8.07;;;2.47;;
59336;SDS011;45115;52.002;4.686;2023-02-24T15:08:40;12.68;;;2.13;;
59336;SDS011;45115;52.002;4.686;2023-02-24T15:11:09;9.77;;;2.05;;
59336;SDS011;45115;52.002;4.686;2023-02-24T15:13:45;9.35;;;1.92;;
59336;SDS011;45115;52.002;4.686;2023-02-24T15:16:13;8.30;;;1.63;;
59336;SDS011;45115;52.002;4.686;2023-02-24T15:18:43;7.38;;;2.03;;
59336;SDS011;45115;52.002;4.686;2023-02-24T15:21:17;6.80;;;1.65;;